Time;durP1;ratioP1;P1;durP2;ratioP2;P2;SDS_P1;SDS_P2;PMS_P1;PMS_P2;Temp;Humidity;BMP_temperature;BMP_pressure;BME280_temperature;BME280_humidity;BME280_pressure;Samples;Min_cycle;Max_cycle;Signal;HPM_P1;HPM_P2
2023/01/06 00:00:31;;;;;;;2.58;1.85;;;;;;;6.84;82.80;98856.89;1674577;84;21028;-73
2023/01/06 00:02:57;;;;;;;2.65;1.92;;;;;;;6.83;82.73;98853.44;1673876;85;20976;-72
2023/01/06 00:05:24;;;;;;;5.30;2.30;;;;;;;6.81;82.64;98855.38;1673711;85;21950;-72
2023/01/06 00:07:51;;;;;;;3.20;2.00;;;;;;;6.80;82.59;98856.34;1690388;84;20952;-72
2023/01/06 00:10:18;;;;;;;2.37;2.12;;;;;;;6.81;82.50;98861.10;1693192;84;21450;-72
2023/01/06 00:12:46;;;;;;;3.40;2.30;;;;;;;6.81;82.41;98861.10;1693117;84;21461;-73
2023/01/06 00:15:12;;;;;;;4.72;2.60;;;;;;;6.79;82.33;98868.28;1692670;84;20973;-72
2023/01/06 00:17:40;;;;;;;3.25;2.27;;;;;;;6.79;82.20;98876.16;1665243;86;22409;-73
2023/01/06 00:20:08;;;;;;;4.10;2.33;;;;;;;6.80;82.16;98878.64;1665097;86;21028;-71
2023/01/06 00:22:35;;;;;;;4.12;2.10;;;;;;;6.79;82.04;98876.16;1665205;86;21068;-72
2023/01/06 00:25:01;;;;;;;4.17;2.20;;;;;;;6.80;82.04;98874.70;1666055;84;20985;-72
2023/01/06 00:27:30;;;;;;;2.95;1.95;;;;;;;6.80;82.01;98872.08;1665198;86;21020;-71
2023/01/06 00:29:57;;;;;;;3.27;2.42;;;;;;;6.81;81.93;98883.41;1665213;86;22591;-73
2023/01/06 00:32:23;;;;;;;2.98;2.00;;;;;;;6.81;81.85;98878.98;1665998;84;21566;-73
2023/01/06 00:34:50;;;;;;;2.60;2.27;;;;;;;6.80;81.83;98876.50;1665411;86;20993;-72
2023/01/06 00:37:16;;;;;;;3.65;2.40;;;;;;;6.80;81.76;98883.06;1665218;86;21028;-72
2023/01/06 00:39:43;;;;;;;6.37;2.20;;;;;;;6.78;81.79;98881.89;1665294;86;21107;-72
2023/01/06 00:42:10;;;;;;;3.05;2.30;;;;;;;6.76;81.79;98881.20;1665053;86;21951;-72
2023/01/06 00:44:38;;;;;;;3.52;2.37;;;;;;;6.75;81.82;98883.45;1665186;86;21045;-72
2023/01/06 00:47:08;;;;;;;2.60;2.20;;;;;;;6.73;81.90;98881.45;1665217;86;21547;-73
2023/01/06 00:49:36;;;;;;;2.77;2.20;;;;;;;6.73;81.93;98891.12;1666115;84;21566;-73
2023/01/06 00:52:03;;;;;;;3.27;2.20;;;;;;;6.72;81.97;98888.98;1665311;86;21467;-73
2023/01/06 00:54:29;;;;;;;2.83;2.12;;;;;;;6.72;81.99;98890.28;1665093;86;21881;-73
2023/01/06 00:56:56;;;;;;;3.42;2.10;;;;;;;6.71;82.01;98893.88;1666409;84;21093;-73
2023/01/06 00:59:24;;;;;;;6.25;2.47;;;;;;;6.71;82.02;98890.42;1674695;84;20999;-72
2023/01/06 01:01:54;;;;;;;3.62;2.50;;;;;;;6.70;82.05;98895.33;1665406;86;21447;-73
2023/01/06 01:04:22;;;;;;;3.37;2.83;;;;;;;6.69;82.09;98891.05;1665278;86;21504;-72
2023/01/06 01:06:49;;;;;;;3.70;2.47;;;;;;;6.66;82.12;98889.53;1667557;84;21836;-71
2023/01/06 01:09:26;;;;;;;4.33;2.70;;;;;;;6.66;82.18;98891.30;1673551;85;21505;-72
2023/01/06 01:12:11;;;;;;;3.25;2.30;;;;;;;6.63;82.19;98896.33;1673852;85;21456;-72
2023/01/06 01:14:51;;;;;;;3.55;2.50;;;;;;;6.63;82.22;98893.70;1682968;84;20999;-72
2023/01/06 01:17:23;;;;;;;4.47;2.47;;;;;;;6.62;82.22;98895.98;1702034;84;21060;-73
2023/01/06 01:19:51;;;;;;;3.72;2.62;;;;;;;6.62;82.25;98895.16;1701989;84;22531;-72
2023/01/06 01:22:17;;;;;;;3.30;2.65;;;;;;;6.60;82.28;98893.50;1701875;84;20996;-73
2023/01/06 01:24:44;;;;;;;3.33;2.33;;;;;;;6.58;82.28;98895.44;1701023;84;21051;-72
2023/01/06 01:27:11;;;;;;;3.65;2.42;;;;;;;6.58;82.31;98894.60;1702317;84;21028;-72
2023/01/06 01:29:38;;;;;;;3.65;2.30;;;;;;;6.56;82.34;98899.12;1711878;83;21016;-72
2023/01/06 01:32:04;;;;;;;4.45;2.22;;;;;;;6.55;82.35;98888.29;1696679;83;21848;-72
2023/01/06 01:34:33;;;;;;;2.80;2.30;;;;;;;6.54;82.37;98890.56;1673742;85;21052;-72
2023/01/06 01:36:59;;;;;;;3.33;2.10;;;;;;;6.52;82.41;98896.44;1676097;85;20988;-72
2023/01/06 01:39:28;;;;;;;3.40;2.37;;;;;;;6.50;82.46;98907.06;1677580;85;21016;-72
2023/01/06 01:41:55;;;;;;;3.65;2.62;;;;;;;6.49;82.49;98904.09;1676195;84;21051;-73
2023/01/06 01:45:02;;;;;;;3.42;2.30;;;;;;;6.49;82.49;98913.76;1673700;85;21955;-72
2023/01/06 01:47:50;;;;;;;3.80;2.30;;;;;;;6.47;82.51;98911.75;1673741;85;20971;-73
2023/01/06 01:50:40;;;;;;;4.10;2.37;;;;;;;6.45;82.51;98914.96;1673787;85;21059;-73
2023/01/06 01:53:17;;;;;;;3.70;2.35;;;;;;;6.42;82.55;98912.61;1673389;85;21063;-71
2023/01/06 01:55:44;;;;;;;2.95;2.27;;;;;;;6.38;82.58;98926.96;1674017;85;21074;-72
2023/01/06 01:58:19;;;;;;;2.85;2.20;;;;;;;6.35;82.64;98927.20;1678746;84;21589;-73
2023/01/06 02:00:45;;;;;;;6.40;2.27;;;;;;;6.34;82.65;98922.92;1685124;84;21024;-73
2023/01/06 02:03:12;;;;;;;3.12;2.20;;;;;;;6.33;82.69;98923.88;1702249;84;20969;-73
2023/01/06 02:05:44;;;;;;;2.33;2.05;;;;;;;6.30;82.72;98923.19;1700740;84;20980;-73
2023/01/06 02:08:35;;;;;;;3.08;2.12;;;;;;;6.30;82.73;98925.81;1696502;84;20976;-72
2023/01/06 02:11:03;;;;;;;3.67;2.02;;;;;;;6.28;82.77;98930.84;1690857;84;21855;-72
2023/01/06 02:13:31;;;;;;;2.92;2.02;;;;;;;6.24;82.83;98928.94;1693184;84;20953;-72
2023/01/06 02:16:13;;;;;;;3.45;2.05;;;;;;;6.22;82.90;98933.48;1691646;84;20972;-72
2023/01/06 02:19:09;;;;;;;2.02;1.80;;;;;;;6.21;82.92;98937.55;1684268;84;20972;-72
2023/01/06 02:22:03;;;;;;;4.92;1.87;;;;;;;6.20;82.95;98939.34;1674162;84;21020;-71
2023/01/06 02:24:38;;;;;;;;;;;;;;;6.18;82.97;98936.03;1662871;86;21906;-72
2023/01/06 02:27:49;;;;;;;3.08;1.98;;;;;;;6.14;83.03;98941.64;1660440;86;20178;-72
2023/01/06 02:30:34;;;;;;;3.00;1.90;;;;;;;6.11;83.07;98946.67;1595806;89;21439;-72
2023/01/06 02:33:34;;;;;;;2.60;1.87;;;;;;;6.09;83.12;98946.45;1657806;84;21028;-72
2023/01/06 02:36:18;;;;;;;3.40;2.05;;;;;;;6.07;83.12;98947.88;1665346;86;20988;-73
2023/01/06 02:38:55;;;;;;;2.52;1.90;;;;;;;6.06;83.19;98945.38;1655624;84;21391;-72
2023/01/06 02:41:48;;;;;;;2.95;1.87;;;;;;;6.04;83.20;98946.83;1664000;86;21479;-72
2023/01/06 02:44:32;;;;;;;3.15;2.02;;;;;;;6.02;83.22;98941.72;1664304;86;21094;-72
2023/01/06 02:47:16;;;;;;;2.98;1.62;;;;;;;6.01;83.26;98949.71;1664113;86;21407;-72
2023/01/06 02:50:08;;;;;;;2.20;1.70;;;;;;;5.99;83.29;98947.22;1681215;84;21352;-72
2023/01/06 02:52:59;;;;;;;2.60;1.60;;;;;;;5.97;83.33;98950.42;1693308;84;21845;-73
2023/01/06 02:55:40;;;;;;;1.85;1.55;;;;;;;5.98;83.33;98956.50;1692675;84;21053;-72
2023/01/06 02:58:30;;;;;;;2.02;1.80;;;;;;;5.98;83.33;98955.19;1691901;84;21526;-72
2023/01/06 03:01:30;;;;;;;1.90;1.60;;;;;;;5.97;83.36;98958.29;1693273;84;21044;-72
2023/01/06 03:03:59;;;;;;;2.87;1.87;;;;;;;5.95;83.36;98966.77;1693464;84;21470;-72
2023/01/06 03:06:27;;;;;;;2.85;1.55;;;;;;;5.94;83.42;98962.48;1692150;84;21854;-72
2023/01/06 03:08:55;;;;;;;2.12;1.45;;;;;;;5.91;83.45;98967.16;1693929;84;21051;-72
2023/01/06 03:11:26;;;;;;;2.02;1.60;;;;;;;5.90;83.49;98963.70;1695680;84;20976;-72
2023/01/06 03:14:11;;;;;;;3.05;1.42;;;;;;;5.91;83.53;98969.78;1683358;84;21013;-73
2023/01/06 03:16:37;;;;;;;1.90;1.40;;;;;;;5.92;83.52;98974.06;1642621;86;21526;-73
2023/01/06 03:19:04;;;;;;;2.42;1.50;;;;;;;5.92;83.52;98981.44;1694198;84;21872;-71
2023/01/06 03:21:35;;;;;;;2.00;1.52;;;;;;;5.92;83.51;98985.85;1694186;84;20953;-71
2023/01/06 03:24:05;;;;;;;2.05;1.32;;;;;;;5.91;83.52;98983.72;1695462;83;21000;-72
2023/01/06 03:26:34;;;;;;;2.25;1.50;;;;;;;5.91;83.52;98980.27;1694125;84;21020;-72
2023/01/06 03:29:02;;;;;;;1.92;1.60;;;;;;;5.89;83.53;98988.70;1694507;84;21561;-72
2023/01/06 03:32:12;;;;;;;1.62;1.37;;;;;;;5.89;83.56;98992.63;1713948;83;22525;-72
2023/01/06 03:35:03;;;;;;;2.52;1.62;;;;;;;5.88;83.57;98993.56;1723031;83;21420;-70
2023/01/06 03:37:55;;;;;;;2.45;1.52;;;;;;;5.86;83.57;98988.93;1723160;82;21043;-72
2023/01/06 03:40:36;;;;;;;2.40;1.50;;;;;;;5.88;83.63;98993.56;1722286;83;20957;-72
2023/01/06 03:43:34;;;;;;;4.83;1.70;;;;;;;5.87;83.67;98999.77;1723177;83;21079;-73
2023/01/06 03:46:18;;;;;;;2.05;1.67;;;;;;;5.86;83.68;98998.10;1723256;83;21848;-72
2023/01/06 03:49:07;;;;;;;2.40;1.60;;;;;;;5.85;83.72;99011.69;1721063;83;21007;-73
2023/01/06 03:51:57;;;;;;;1.98;1.52;;;;;;;5.85;83.76;99008.23;1723257;83;20993;-73
2023/01/06 03:54:51;;;;;;;3.50;2.60;;;;;;;5.82;83.82;99013.25;1688105;85;21044;-73
2023/01/06 03:57:23;;;;;;;6.47;5.80;;;;;;;5.81;83.87;99019.94;1679941;84;21008;-72
2023/01/06 03:59:56;;;;;;;4.60;4.12;;;;;;;5.81;83.91;99027.80;1679656;85;21958;-73
2023/01/06 04:02:22;;;;;;;3.20;2.70;;;;;;;5.82;83.93;99027.66;1640796;86;21522;-73
2023/01/06 04:05:13;;;;;;;3.40;2.20;;;;;;;5.82;83.99;99034.70;1679061;84;21013;-73
2023/01/06 04:07:41;;;;;;;4.25;2.40;;;;;;;5.79;84.01;99034.48;1723757;83;20973;-73
2023/01/06 04:10:09;;;;;;;2.98;2.70;;;;;;;5.77;84.10;99048.15;1726947;83;20940;-72
2023/01/06 04:12:39;;;;;;;2.92;2.50;;;;;;;5.77;84.16;99046.84;1696782;82;21953;-73
2023/01/06 04:15:15;;;;;;;3.40;2.42;;;;;;;5.78;84.22;99051.13;1697557;83;21067;-73
2023/01/06 04:17:43;;;;;;;2.58;2.30;;;;;;;5.79;84.23;99058.05;1674048;84;20984;-72
2023/01/06 04:20:21;;;;;;;2.20;2.00;;;;;;;5.79;84.25;99063.30;1701860;84;21360;-71
2023/01/06 04:22:48;;;;;;;1.90;1.70;;;;;;;5.78;84.23;99076.49;1679147;84;21036;-73
2023/01/06 04:25:15;;;;;;;1.55;1.20;;;;;;;5.77;84.20;99078.77;1673260;85;21836;-73
2023/01/06 04:27:42;;;;;;;1.17;1.02;;;;;;;5.74;84.08;99090.33;1673447;85;20970;-72
2023/01/06 04:30:11;;;;;;;0.80;0.80;;;;;;;5.69;83.92;99089.84;1673584;84;20987;-72
2023/01/06 04:32:38;;;;;;;1.00;0.90;;;;;;;5.62;83.75;99100.48;1701366;84;21011;-72
2023/01/06 04:35:07;;;;;;;3.02;1.00;;;;;;;5.54;83.68;99108.94;1701959;84;21019;-71
2023/01/06 04:37:34;;;;;;;1.22;1.00;;;;;;;5.49;83.61;99118.09;1701840;84;21952;-72
2023/01/06 04:40:01;;;;;;;0.78;0.78;;;;;;;5.44;83.41;99130.25;1700870;84;21095;-72
2023/01/06 04:42:27;;;;;;;1.10;0.80;;;;;;;5.36;83.35;99130.02;1701705;84;21148;-72
2023/01/06 04:44:54;;;;;;;0.95;0.88;;;;;;;5.30;83.26;99130.48;1682633;84;21059;-72
2023/01/06 04:47:20;;;;;;;0.95;0.88;;;;;;;5.24;83.18;99144.89;1674548;84;21020;-72
2023/01/06 04:49:47;;;;;;;1.10;0.88;;;;;;;5.18;83.05;99154.52;1674046;85;21823;-73
2023/01/06 04:52:14;;;;;;;1.20;1.10;;;;;;;5.10;82.94;99160.80;1673619;85;20963;-72
2023/01/06 04:54:41;;;;;;;1.77;1.00;;;;;;;5.05;82.91;99166.88;1662134;85;21011;-72
2023/01/06 04:57:07;;;;;;;1.37;1.05;;;;;;;5.03;82.89;99180.56;1690626;83;20988;-72
2023/01/06 04:59:35;;;;;;;1.50;1.30;;;;;;;5.01;82.87;99189.81;1702058;84;21454;-72
2023/01/06 05:02:01;;;;;;;1.10;1.00;;;;;;;4.97;82.80;99195.40;1702150;84;21833;-71
2023/01/06 05:04:28;;;;;;;1.00;0.80;;;;;;;4.90;82.65;99208.09;1698508;84;21063;-72
2023/01/06 05:06:54;;;;;;;0.80;0.80;;;;;;;4.85;82.41;99207.63;1673926;85;21031;-73
2023/01/06 05:09:21;;;;;;;0.80;0.80;;;;;;;4.79;82.26;99217.22;1668316;85;21060;-73
2023/01/06 05:11:47;;;;;;;1.37;1.27;;;;;;;4.72;82.11;99221.23;1680060;84;21454;-72
2023/01/06 05:14:14;;;;;;;2.60;2.20;;;;;;;4.64;81.96;99236.20;1692508;84;22442;-71
2023/01/06 05:16:41;;;;;;;1.30;1.20;;;;;;;4.53;81.60;99238.27;1693201;84;20953;-72
2023/01/06 05:19:08;;;;;;;1.07;0.98;;;;;;;4.42;81.43;99255.20;1692624;84;21008;-71
2023/01/06 05:21:34;;;;;;;1.10;1.00;;;;;;;4.34;81.28;99260.61;1689310;84;21523;-72
2023/01/06 05:24:01;;;;;;;2.05;1.80;;;;;;;4.25;81.11;99268.67;1665328;86;21028;-73
2023/01/06 05:26:27;;;;;;;1.40;1.30;;;;;;;4.18;80.94;99277.87;1665697;86;21962;-72
2023/01/06 05:28:54;;;;;;;1.20;1.10;;;;;;;4.10;80.75;99284.94;1668381;84;21031;-72
2023/01/06 05:31:20;;;;;;;2.37;2.12;;;;;;;4.02;80.55;99295.92;1696864;84;20957;-71
2023/01/06 05:33:48;;;;;;;2.35;1.90;;;;;;;3.93;80.41;99307.01;1694387;84;21025;-72
2023/01/06 05:36:16;;;;;;;1.57;1.47;;;;;;;3.85;80.32;99310.61;1693212;84;21020;-72
2023/01/06 05:38:43;;;;;;;1.70;1.52;;;;;;;3.81;80.30;99310.95;1687741;84;22499;-72
2023/01/06 05:41:10;;;;;;;1.57;1.30;;;;;;;3.76;80.29;99315.16;1665301;86;21412;-72
2023/01/06 05:43:37;;;;;;;1.50;1.40;;;;;;;3.71;80.13;99322.48;1665289;86;21081;-72
2023/01/06 05:46:06;;;;;;;1.32;1.22;;;;;;;3.65;80.10;99324.20;1667850;84;21012;-72
2023/01/06 05:48:32;;;;;;;1.75;1.65;;;;;;;3.61;80.08;99328.80;1693211;84;21016;-73
2023/01/06 05:51:04;;;;;;;2.10;1.90;;;;;;;3.58;80.01;99339.47;1693311;84;21890;-72
2023/01/06 05:53:33;;;;;;;3.10;1.95;;;;;;;3.56;79.99;99346.53;1693187;84;21434;-72
2023/01/06 05:56:02;;;;;;;1.60;1.50;;;;;;;3.54;79.97;99361.48;1663241;84;21397;-72
2023/01/06 05:58:28;;;;;;;1.70;1.60;;;;;;;3.52;79.94;99363.36;1693103;84;21080;-72
2023/01/06 06:00:55;;;;;;;1.70;1.60;;;;;;;3.50;79.87;99374.84;1693078;84;21051;-72
2023/01/06 06:03:21;;;;;;;1.60;1.50;;;;;;;3.48;79.80;99388.48;1687041;84;21902;-72
2023/01/06 06:05:48;;;;;;;1.60;1.50;;;;;;;3.41;79.73;99387.56;1665280;86;21068;-71
2023/01/06 06:08:14;;;;;;;1.92;1.82;;;;;;;3.39;79.67;99399.05;1665148;86;21099;-71
2023/01/06 06:10:41;;;;;;;2.75;2.12;;;;;;;3.36;79.60;99413.11;1665322;86;21443;-71
2023/01/06 06:13:07;;;;;;;2.20;2.00;;;;;;;3.32;79.52;99420.79;1676538;84;21431;-73
2023/01/06 06:15:34;;;;;;;2.52;2.10;;;;;;;3.27;79.45;99416.31;1693157;84;21767;-72
2023/01/06 06:18:01;;;;;;;2.22;2.02;;;;;;;3.22;79.37;99422.79;1693190;84;21025;-72
2023/01/06 06:20:28;;;;;;;2.00;1.80;;;;;;;3.16;79.22;99428.75;1685472;84;21027;-73
2023/01/06 06:22:55;;;;;;;3.85;3.50;;;;;;;3.13;79.12;99436.79;1689454;85;21024;-72
2023/01/06 06:25:21;;;;;;;5.17;4.50;;;;;;;3.09;79.06;99443.63;1689534;85;20959;-73
2023/01/06 06:27:48;;;;;;;4.15;3.75;;;;;;;3.07;79.08;99448.07;1664477;85;21851;-73
2023/01/06 06:30:16;;;;;;;5.87;4.97;;;;;;;3.05;79.02;99453.86;1690482;83;21015;-73
2023/01/06 06:32:43;;;;;;;4.42;3.50;;;;;;;3.04;78.95;99461.31;1689503;85;20975;-73
2023/01/06 06:35:09;;;;;;;4.30;3.12;;;;;;;3.02;78.94;99476.23;1689805;85;20967;-72
2023/01/06 06:37:36;;;;;;;3.10;2.80;;;;;;;3.01;78.91;99483.23;1698546;83;21063;-72
2023/01/06 06:40:03;;;;;;;3.10;2.80;;;;;;;3.00;78.88;99487.24;1718233;83;21965;-74
2023/01/06 06:42:30;;;;;;;2.62;2.42;;;;;;;2.98;78.86;99498.21;1718100;83;21019;-72
2023/01/06 06:44:57;;;;;;;3.10;2.80;;;;;;;2.96;78.81;99502.69;1718213;83;21059;-72
2023/01/06 06:47:23;;;;;;;2.90;2.58;;;;;;;2.92;78.72;99514.27;1717217;83;20991;-73
2023/01/06 06:49:50;;;;;;;2.85;2.55;;;;;;;2.87;78.72;99517.97;1718412;83;20964;-71
2023/01/06 06:52:16;;;;;;;3.37;3.02;;;;;;;2.87;78.72;99527.56;1717767;83;21495;-72
2023/01/06 06:54:43;;;;;;;2.90;2.70;;;;;;;2.85;78.64;99528.97;1717100;82;21419;-72
2023/01/06 06:57:09;;;;;;;3.30;3.00;;;;;;;2.83;78.57;99533.45;1689692;83;21390;-73
2023/01/06 06:59:36;;;;;;;2.75;2.55;;;;;;;2.81;78.51;99539.23;1664376;85;20987;-73
2023/01/06 07:02:02;;;;;;;2.80;2.60;;;;;;;2.79;78.44;99550.66;1689313;85;20971;-72
2023/01/06 07:04:29;;;;;;;2.80;2.60;;;;;;;2.77;78.38;99557.28;1686509;84;21844;-73
2023/01/06 07:06:56;;;;;;;2.87;2.67;;;;;;;2.76;78.27;99562.59;1700491;84;21044;-73
2023/01/06 07:09:22;;;;;;;3.37;3.08;;;;;;;2.73;78.16;99577.13;1703995;84;21015;-73
2023/01/06 07:11:49;;;;;;;3.33;3.02;;;;;;;2.73;78.06;99579.73;1697490;84;20988;-73
2023/01/06 07:14:17;;;;;;;3.95;3.62;;;;;;;2.72;77.98;99582.81;1680887;85;21008;-72
2023/01/06 07:16:44;;;;;;;3.98;3.35;;;;;;;2.72;77.96;99588.02;1681071;85;21681;-72
2023/01/06 07:19:10;;;;;;;3.80;3.50;;;;;;;2.71;77.84;99590.26;1698076;84;20953;-72
2023/01/06 07:21:37;;;;;;;3.98;3.62;;;;;;;2.72;77.78;99589.80;1699025;83;21058;-73
2023/01/06 07:24:04;;;;;;;3.95;3.65;;;;;;;2.70;77.71;99580.77;1698002;83;20963;-72
2023/01/06 07:26:32;;;;;;;4.45;4.05;;;;;;;2.70;77.67;99589.89;1697972;84;21058;-71
2023/01/06 07:28:58;;;;;;;4.20;3.80;;;;;;;2.69;77.57;99595.17;1711563;82;21918;-72
2023/01/06 07:31:24;;;;;;;4.62;4.22;;;;;;;2.67;77.46;99607.46;1727087;83;21075;-72
2023/01/06 07:33:51;;;;;;;4.90;4.50;;;;;;;2.68;77.42;99615.19;1727232;83;20987;-72
2023/01/06 07:36:18;;;;;;;4.92;4.47;;;;;;;2.66;77.41;99636.61;1726944;83;21007;-72
2023/01/06 07:38:44;;;;;;;5.50;4.60;;;;;;;2.67;77.33;99638.75;1726130;83;21139;-73
2023/01/06 07:41:11;;;;;;;5.85;5.33;;;;;;;2.66;77.26;99648.81;1727169;83;21900;-72
2023/01/06 07:43:38;;;;;;;5.78;5.28;;;;;;;2.64;77.18;99667.62;1727100;82;21002;-72
2023/01/06 07:46:04;;;;;;;6.80;6.20;;;;;;;2.62;77.09;99669.48;1712048;83;20983;-72
2023/01/06 07:48:30;;;;;;;8.95;8.05;;;;;;;2.60;77.00;99679.97;1698372;84;21006;-72
2023/01/06 07:50:57;;;;;;;6.60;5.87;;;;;;;2.57;76.95;99681.00;1698195;84;21019;-72
2023/01/06 07:53:24;;;;;;;6.80;6.10;;;;;;;2.54;76.77;99676.44;1698085;83;22573;-72
2023/01/06 07:55:52;;;;;;;6.53;5.92;;;;;;;2.53;76.75;99686.02;1704319;83;20976;-72
2023/01/06 07:58:18;;;;;;;6.35;5.75;;;;;;;2.52;76.67;99690.86;1668974;85;21056;-72
2023/01/06 08:00:45;;;;;;;6.30;5.70;;;;;;;2.48;76.53;99699.77;1665301;84;21056;-72
2023/01/06 08:03:12;;;;;;;6.85;6.25;;;;;;;2.46;76.48;99713.36;1698801;84;20968;-72
2023/01/06 08:05:42;;;;;;;6.20;5.60;;;;;;;2.48;76.46;99732.81;1704454;84;22335;-72
2023/01/06 08:08:09;;;;;;;6.30;5.70;;;;;;;2.47;76.37;99735.05;1704281;84;21008;-71
2023/01/06 08:10:39;;;;;;;6.30;5.70;;;;;;;2.48;76.33;99747.16;1704369;84;21023;-72
2023/01/06 08:13:06;;;;;;;6.17;5.60;;;;;;;2.50;76.32;99746.59;1704403;82;21020;-72
2023/01/06 08:15:32;;;;;;;5.33;4.83;;;;;;;2.49;76.26;99754.05;1704477;84;20972;-73
2023/01/06 08:17:58;;;;;;;5.85;5.35;;;;;;;2.49;76.23;99766.61;1704896;84;21802;-71
2023/01/06 08:20:25;;;;;;;5.97;5.40;;;;;;;2.50;76.16;99772.66;1685976;84;21098;-73
2023/01/06 08:22:51;;;;;;;5.75;5.25;;;;;;;2.50;76.12;99773.97;1646079;85;21047;-73
2023/01/06 08:25:18;;;;;;;4.55;4.05;;;;;;;2.51;76.12;99781.73;1676168;85;21059;-73
2023/01/06 08:27:44;;;;;;;4.90;4.50;;;;;;;2.55;76.04;99778.47;1676304;85;21067;-72
2023/01/06 08:30:11;;;;;;;5.00;4.50;;;;;;;2.54;76.00;99772.42;1677047;84;21954;-72
2023/01/06 08:32:38;;;;;;;4.90;4.40;;;;;;;2.56;75.97;99777.55;1676063;85;21070;-73
2023/01/06 08:35:05;;;;;;;5.50;5.00;;;;;;;2.60;75.98;99782.95;1676034;85;21545;-72
2023/01/06 08:37:32;;;;;;;6.03;5.47;;;;;;;2.62;75.92;99785.03;1696191;84;21055;-72
2023/01/06 08:39:58;;;;;;;4.85;4.37;;;;;;;2.64;75.92;99791.00;1704469;84;21015;-72
2023/01/06 08:42:25;;;;;;;4.60;4.20;;;;;;;2.67;75.93;99799.94;1704393;84;21929;-72
2023/01/06 08:44:51;;;;;;;7.12;6.42;;;;;;;2.68;75.92;99809.44;1704569;84;20944;-71
2023/01/06 08:47:18;;;;;;;11.38;10.20;;;;;;;2.66;75.95;99813.91;1679793;84;21035;-73
2023/01/06 08:49:44;;;;;;;8.65;7.75;;;;;;;2.66;75.98;99815.21;1676285;85;21020;-72
2023/01/06 08:52:10;;;;;;;9.00;7.08;;;;;;;2.66;75.98;99817.81;1676101;85;21035;-72
2023/01/06 08:54:38;;;;;;;5.87;5.17;;;;;;;2.60;75.99;99822.06;1697843;83;21099;-72
2023/01/06 08:57:05;;;;;;;5.33;4.83;;;;;;;2.58;76.10;99826.52;1704312;84;21087;-72
2023/01/06 08:59:33;;;;;;;4.72;4.22;;;;;;;2.57;76.24;99832.20;1704419;84;20988;-73
2023/01/06 09:02:00;;;;;;;4.40;4.00;;;;;;;2.57;76.41;99832.20;1704508;84;21432;-73
2023/01/06 09:04:27;;;;;;;5.62;5.12;;;;;;;2.55;76.49;99834.06;1677798;84;21564;-72
2023/01/06 09:06:55;;;;;;;4.92;4.42;;;;;;;2.55;76.59;99838.44;1676095;85;22437;-73
2023/01/06 09:09:22;;;;;;;4.45;3.83;;;;;;;2.56;76.67;99839.65;1675900;85;20971;-72
2023/01/06 09:11:49;;;;;;;4.28;3.65;;;;;;;2.58;76.67;99846.08;1699521;84;21015;-72
2023/01/06 09:14:15;;;;;;;4.03;3.62;;;;;;;2.55;76.56;99852.31;1704324;84;21031;-73
2023/01/06 09:16:42;;;;;;;4.17;3.77;;;;;;;2.56;76.55;99857.05;1704472;84;20968;-72
2023/01/06 09:19:09;;;;;;;4.70;4.25;;;;;;;2.54;76.53;99862.36;1704249;84;22279;-71
2023/01/06 09:21:35;;;;;;;4.67;4.25;;;;;;;2.54;76.61;99866.73;1707381;84;21015;-72
2023/01/06 09:24:02;;;;;;;4.60;4.20;;;;;;;2.54;76.68;99870.18;1707826;84;20969;-73
2023/01/06 09:26:29;;;;;;;4.65;4.25;;;;;;;2.53;76.56;99869.80;1704908;84;21012;-72
2023/01/06 09:28:55;;;;;;;4.90;4.40;;;;;;;2.51;76.46;99874.27;1704006;84;21044;-72
2023/01/06 09:31:23;;;;;;;4.80;4.30;;;;;;;2.46;76.34;99871.05;1704440;84;20948;-72
2023/01/06 09:33:50;;;;;;;4.92;4.40;;;;;;;2.46;76.36;99884.55;1704560;84;20964;-72
2023/01/06 09:36:16;;;;;;;5.03;4.53;;;;;;;2.42;76.12;99883.05;1703734;84;21579;-71
2023/01/06 09:38:43;;;;;;;5.50;4.67;;;;;;;2.39;76.14;99889.23;1676423;85;20992;-72
2023/01/06 09:41:27;;;;;;;5.03;4.53;;;;;;;2.38;76.03;99900.59;1676265;85;21023;-72
2023/01/06 09:44:08;;;;;;;5.95;5.12;;;;;;;2.37;75.99;99917.62;1677000;84;22469;-72
2023/01/06 09:46:38;;;;;;;5.40;4.90;;;;;;;2.34;75.77;99919.09;1704040;84;21401;-73
2023/01/06 09:49:28;;;;;;;6.17;5.40;;;;;;;2.30;75.55;99921.00;1704666;84;20964;-73
2023/01/06 09:52:18;;;;;;;6.58;5.75;;;;;;;2.28;75.44;99923.69;1704428;84;21168;-72
2023/01/06 09:54:58;;;;;;;5.40;4.90;;;;;;;2.27;75.35;99933.73;1652043;85;21063;-72
2023/01/06 09:57:35;;;;;;;5.47;4.87;;;;;;;2.25;75.01;99938.19;1676173;85;22007;-72
2023/01/06 10:00:07;;;;;;;6.28;4.80;;;;;;;2.18;74.71;99938.13;1647115;85;21347;-72
2023/01/06 10:02:38;;;;;;;5.72;5.12;;;;;;;2.13;74.41;99936.23;1694771;84;21625;-72
2023/01/06 10:05:22;;;;;;;6.10;5.47;;;;;;;2.08;74.15;99947.80;1674300;84;21050;-72
2023/01/06 10:08:14;;;;;;;6.35;5.75;;;;;;;2.04;73.95;99952.80;1674380;84;21027;-72
2023/01/06 10:10:55;;;;;;;5.83;4.78;;;;;;;2.00;73.84;99951.62;1703874;84;21809;-72
2023/01/06 10:13:58;;;;;;;5.65;4.80;;;;;;;2.00;73.69;99948.18;1704014;84;21051;-73
2023/01/06 10:17:00;;;;;;;5.30;4.80;;;;;;;1.96;73.26;99962.30;1703971;84;21546;-72
2023/01/06 10:20:03;;;;;;;5.00;4.50;;;;;;;1.88;73.01;99957.46;1702418;84;21059;-72
2023/01/06 10:22:38;;;;;;;4.72;4.20;;;;;;;1.82;72.76;99964.73;1704409;84;21031;-72
2023/01/06 10:25:23;;;;;;;5.05;4.55;;;;;;;1.76;72.52;99966.36;1704783;84;22012;-72
2023/01/06 10:28:00;;;;;;;4.87;4.37;;;;;;;1.70;72.44;99970.94;1702995;84;21099;-72
2023/01/06 10:30:42;;;;;;;5.00;4.50;;;;;;;1.65;72.38;99973.40;1704236;84;21055;-72
2023/01/06 10:33:26;;;;;;;4.80;4.30;;;;;;;1.66;72.46;99975.08;1704450;84;27336;-72
2023/01/06 10:35:54;;;;;;;4.87;4.30;;;;;;;1.66;72.49;99976.38;1692231;84;20988;-72
2023/01/06 10:38:28;;;;;;;5.37;4.47;;;;;;;1.66;72.40;99977.22;1676080;85;21811;-71
2023/01/06 10:40:55;;;;;;;4.97;4.47;;;;;;;1.65;72.31;99983.81;1676063;85;21042;-73
2023/01/06 10:43:22;;;;;;;5.25;4.67;;;;;;;1.63;72.32;99989.06;1675956;85;20971;-72
2023/01/06 10:45:50;;;;;;;5.33;4.80;;;;;;;1.62;72.38;99987.84;1699044;83;21597;-72
2023/01/06 10:48:19;;;;;;;5.22;4.72;;;;;;;1.61;72.37;99993.97;1698209;84;21014;-72
2023/01/06 10:50:46;;;;;;;7.12;4.80;;;;;;;1.60;72.38;99995.73;1698366;84;21942;-73
2023/01/06 10:53:13;;;;;;;5.70;5.10;;;;;;;1.59;72.40;99999.26;1704922;83;20939;-73
2023/01/06 10:55:59;;;;;;;7.05;5.20;;;;;;;1.60;72.51;100002.70;1727320;83;20943;-72
2023/01/06 10:58:48;;;;;;;5.42;4.70;;;;;;;1.61;72.57;100003.08;1727194;82;21425;-73
2023/01/06 11:01:22;;;;;;;6.45;5.65;;;;;;;1.61;72.57;100004.38;1726518;83;21038;-71
2023/01/06 11:04:08;;;;;;;6.08;5.45;;;;;;;1.57;72.49;100007.60;1727464;83;21864;-71
2023/01/06 11:06:35;;;;;;;6.05;5.45;;;;;;;1.58;72.50;100009.75;1727482;82;21398;-72
2023/01/06 11:09:28;;;;;;;6.75;5.80;;;;;;;1.56;72.54;100017.63;1724830;83;20959;-72
2023/01/06 11:11:58;;;;;;;7.30;5.60;;;;;;;1.57;72.50;100027.13;1701208;82;21717;-72
2023/01/06 11:14:28;;;;;;;4.78;4.35;;;;;;;1.60;72.52;100023.52;1700491;84;20995;-72
2023/01/06 11:17:03;;;;;;;5.08;4.58;;;;;;;1.60;72.43;100036.08;1735350;82;21823;-71
2023/01/06 11:19:43;;;;;;;5.40;4.75;;;;;;;1.57;72.41;100038.84;1703666;84;21037;-71
2023/01/06 11:22:35;;;;;;;5.60;4.72;;;;;;;1.56;72.46;100048.88;1676396;85;21010;-71
2023/01/06 11:25:29;;;;;;;5.08;4.58;;;;;;;1.55;72.41;100056.30;1676462;85;21013;-72
2023/01/06 11:28:13;;;;;;;4.97;4.22;;;;;;;1.48;72.20;100049.69;1701672;84;21033;-72
2023/01/06 11:30:49;;;;;;;5.47;4.58;;;;;;;1.44;72.23;100062.44;1725465;83;21948;-72
2023/01/06 11:33:22;;;;;;;5.47;4.72;;;;;;;1.41;72.22;100071.70;1730811;83;21557;-72
2023/01/06 11:35:48;;;;;;;4.87;4.37;;;;;;;1.39;72.21;100081.34;1703873;84;21016;-72
2023/01/06 11:38:17;;;;;;;5.37;4.85;;;;;;;1.38;72.24;100098.72;1704599;84;21577;-72
2023/01/06 11:40:47;;;;;;;5.62;4.70;;;;;;;1.37;72.22;100103.99;1730636;82;21141;-72
2023/01/06 11:43:16;;;;;;;5.50;4.62;;;;;;;1.36;72.20;100112.72;1726063;83;21825;-72
2023/01/06 11:46:05;;;;;;;6.55;4.92;;;;;;;1.36;72.25;100116.62;1701327;83;20972;-72
2023/01/06 11:48:42;;;;;;;5.95;4.70;;;;;;;1.31;72.16;100127.68;1701515;84;20984;-72
2023/01/06 11:51:08;;;;;;;5.78;4.72;;;;;;;1.27;72.22;100135.25;1701762;84;21110;-72
2023/01/06 11:53:37;;;;;;;7.05;4.80;;;;;;;1.20;72.10;100144.23;1672097;83;20989;-71
2023/01/06 11:56:15;;;;;;;5.67;5.08;;;;;;;1.14;72.09;100148.78;1730654;83;21816;-71
2023/01/06 11:58:59;;;;;;;33.58;21.73;;;;;;;1.13;72.14;100142.34;1730712;83;20968;-71
2023/01/06 12:01:52;;;;;;;11.73;8.38;;;;;;;1.14;72.19;100152.69;1729524;83;20987;-71
2023/01/06 12:04:35;;;;;;;23.87;16.55;;;;;;;1.12;72.09;100154.52;1730562;82;20991;-72